Time;durP1;ratioP1;P1;durP2;ratioP2;P2;SDS_P1;SDS_P2;PMS_P1;PMS_P2;Temp;Humidity;BMP_temperature;BMP_pressure;BME280_temperature;BME280_humidity;BME280_pressure;Samples;Min_cycle;Max_cycle;Signal;HPM_P1;HPM_P2
2022/05/19 00:01:50;;;;;;;26.33;16.83;;;17.00;99.90;;;;;;5036372;28;20036;-81
2022/05/19 00:04:16;;;;;;;23.30;17.58;;;17.00;99.90;;;;;;5054476;28;20093;-80
2022/05/19 00:06:42;;;;;;;24.00;17.85;;;17.00;99.90;;;;;;5037786;28;20751;-81
2022/05/19 00:09:07;;;;;;;28.95;19.15;;;17.00;99.90;;;;;;5021436;28;20119;-80
2022/05/19 00:11:33;;;;;;;26.52;19.20;;;17.00;99.90;;;;;;5037717;28;20040;-80
2022/05/19 00:14:00;;;;;;;26.50;18.23;;;17.00;99.90;;;;;;5054022;28;20453;-81
2022/05/19 00:16:26;;;;;;;30.05;19.02;;;17.00;99.90;;;;;;5037829;28;20075;-81
2022/05/19 00:18:52;;;;;;;33.85;19.45;;;17.10;99.90;;;;;;5051371;28;20040;-81
2022/05/19 00:21:17;;;;;;;28.25;19.67;;;17.10;99.90;;;;;;5054156;28;20575;-81
2022/05/19 00:23:43;;;;;;;24.48;18.58;;;17.20;99.90;;;;;;5053749;28;20094;-81
2022/05/19 00:26:09;;;;;;;29.02;19.33;;;17.20;99.90;;;;;;5037457;28;20052;-81
2022/05/19 00:28:34;;;;;;;27.13;18.30;;;17.20;99.90;;;;;;5054290;28;20048;-80
2022/05/19 00:31:01;;;;;;;29.27;19.55;;;17.10;99.90;;;;;;5053530;28;20043;-80
2022/05/19 00:33:27;;;;;;;30.63;20.23;;;17.00;99.90;;;;;;5037890;28;20059;-80
2022/05/19 00:35:52;;;;;;;23.13;17.85;;;17.00;99.90;;;;;;5053504;28;20043;-80
2022/05/19 00:38:18;;;;;;;32.10;20.73;;;17.00;99.90;;;;;;5053970;28;20044;-80
2022/05/19 00:40:47;;;;;;;27.88;19.98;;;16.90;99.90;;;;;;5053862;28;20115;-81
2022/05/19 00:43:13;;;;;;;27.80;19.60;;;16.90;99.90;;;;;;5035280;28;20400;-80
2022/05/19 00:45:54;;;;;;;29.10;20.05;;;17.00;99.90;;;;;;5053312;28;20036;-80
2022/05/19 00:48:26;;;;;;;27.20;19.85;;;16.90;99.90;;;;;;5037309;28;20488;-80
2022/05/19 00:51:01;;;;;;;28.52;19.10;;;16.90;99.90;;;;;;5036876;28;20048;-80
2022/05/19 00:53:55;;;;;;;26.65;19.30;;;16.80;99.90;;;;;;5053044;28;20043;-80
2022/05/19 00:56:38;;;;;;;28.50;20.35;;;16.80;99.90;;;;;;5049794;28;20567;-81
2022/05/19 00:59:09;;;;;;;27.63;19.63;;;16.80;99.90;;;;;;5052113;28;20101;-81
2022/05/19 01:01:41;;;;;;;32.30;20.65;;;16.70;99.90;;;;;;5051245;28;20036;-81
2022/05/19 01:04:47;;;;;;;32.65;21.35;;;16.80;99.90;;;;;;5037041;28;20044;-80
2022/05/19 01:07:19;;;;;;;35.05;21.55;;;16.60;99.90;;;;;;5053093;28;20040;-80
2022/05/19 01:09:46;;;;;;;29.52;21.77;;;16.50;99.90;;;;;;5053338;28;20523;-80
2022/05/19 01:12:12;;;;;;;30.40;20.73;;;16.50;99.90;;;;;;5037105;28;20469;-80
2022/05/19 01:14:39;;;;;;;37.13;21.85;;;16.60;99.90;;;;;;5053390;28;20103;-80
2022/05/19 01:17:06;;;;;;;32.08;21.25;;;16.50;99.90;;;;;;5036286;28;20076;-81
2022/05/19 01:19:45;;;;;;;33.80;21.27;;;16.50;99.90;;;;;;5052899;28;20481;-80
2022/05/19 01:22:27;;;;;;;31.13;21.73;;;16.40;99.90;;;;;;5036525;28;20342;-81
2022/05/19 01:25:03;;;;;;;31.83;21.98;;;16.40;99.90;;;;;;5051751;28;20029;-80
2022/05/19 01:27:30;;;;;;;37.53;21.75;;;16.40;99.90;;;;;;5051580;28;20037;-80
2022/05/19 01:29:55;;;;;;;33.85;21.48;;;16.40;99.90;;;;;;5052441;28;20044;-81
2022/05/19 01:32:24;;;;;;;32.80;22.30;;;16.40;99.90;;;;;;5036108;28;20048;-81
2022/05/19 01:34:50;;;;;;;30.13;23.27;;;16.40;99.90;;;;;;5035693;28;20046;-81
2022/05/19 01:37:16;;;;;;;37.70;25.13;;;16.30;99.90;;;;;;5052787;28;20032;-80
2022/05/19 01:39:47;;;;;;;37.92;26.20;;;16.30;99.90;;;;;;5019617;28;20465;-80
2022/05/19 01:42:34;;;;;;;36.90;27.30;;;16.20;99.90;;;;;;5052720;28;20037;-80
2022/05/19 01:45:36;;;;;;;40.70;29.05;;;16.10;99.90;;;;;;5035133;28;20037;-80
2022/05/19 01:48:19;;;;;;;42.70;30.73;;;16.00;99.90;;;;;;5052428;28;20063;-80
2022/05/19 01:51:18;;;;;;;40.50;31.90;;;15.90;99.90;;;;;;5050167;28;20075;-80
2022/05/19 01:54:06;;;;;;;44.90;35.55;;;15.90;99.90;;;;;;5026525;28;20052;-80
2022/05/19 01:56:48;;;;;;;44.88;34.45;;;15.80;99.90;;;;;;5052242;28;20044;-80
2022/05/19 01:59:54;;;;;;;44.88;31.42;;;15.80;99.90;;;;;;5052214;28;20427;-81
2022/05/19 02:02:35;;;;;;;41.90;32.55;;;15.70;99.90;;;;;;5036438;28;20059;-81
2022/05/19 02:05:51;;;;;;;41.53;31.80;;;15.60;99.90;;;;;;5033268;28;20047;-81
2022/05/19 02:08:37;;;;;;;48.28;34.50;;;15.60;99.90;;;;;;5030392;28;20492;-80
2022/05/19 02:11:09;;;;;;;45.50;35.47;;;15.60;99.90;;;;;;5051720;28;20434;-80
2022/05/19 02:13:35;;;;;;;51.90;36.60;;;15.60;99.90;;;;;;5052457;28;20041;-79
2022/05/19 02:16:04;;;;;;;50.88;37.10;;;15.50;99.90;;;;;;5052087;28;20101;-81
2022/05/19 02:18:30;;;;;;;54.28;38.85;;;15.50;99.90;;;;;;5052562;28;20041;-81
2022/05/19 02:20:59;;;;;;;56.17;39.95;;;15.60;99.90;;;;;;5035396;28;20055;-80
2022/05/19 02:23:26;;;;;;;53.50;40.70;;;15.60;99.90;;;;;;5052211;28;20105;-80
2022/05/19 02:25:55;;;;;;;56.50;39.63;;;15.50;99.90;;;;;;5052073;28;20049;-79
2022/05/19 02:28:31;;;;;;;57.92;43.42;;;15.60;99.90;;;;;;5035594;28;20070;-80
2022/05/19 02:30:57;;;;;;;56.60;42.92;;;15.60;99.90;;;;;;5050412;28;20048;-81
2022/05/19 02:33:23;;;;;;;62.15;45.60;;;15.60;99.90;;;;;;5034671;28;20072;-80
2022/05/19 02:35:49;;;;;;;60.95;44.13;;;15.60;99.90;;;;;;5050923;28;20141;-80
2022/05/19 02:38:17;;;;;;;62.50;46.13;;;15.60;99.90;;;;;;5035490;28;20218;-80
2022/05/19 02:40:43;;;;;;;62.80;45.65;;;15.50;99.90;;;;;;5035579;28;20033;-81
2022/05/19 02:43:10;;;;;;;65.20;44.38;;;15.50;99.90;;;;;;5051902;28;20076;-81
2022/05/19 02:45:36;;;;;;;65.32;47.28;;;15.50;99.90;;;;;;5052712;28;20447;-80
2022/05/19 02:48:03;;;;;;;64.63;45.03;;;15.50;99.90;;;;;;5051656;28;20064;-80
2022/05/19 02:50:30;;;;;;;65.22;45.95;;;15.50;99.90;;;;;;5035791;28;20072;-80
2022/05/19 02:52:56;;;;;;;64.40;45.83;;;15.50;99.90;;;;;;5051686;28;20051;-80
2022/05/19 02:55:21;;;;;;;64.53;44.00;;;15.50;99.90;;;;;;5052153;28;20033;-80
2022/05/19 02:57:50;;;;;;;65.95;46.78;;;15.50;99.90;;;;;;5052187;28;20037;-81
2022/05/19 03:00:20;;;;;;;69.00;46.88;;;15.60;99.90;;;;;;5051997;28;20039;-80
2022/05/19 03:02:46;;;;;;;67.07;45.35;;;15.60;99.90;;;;;;5035598;28;20500;-81
2022/05/19 03:05:18;;;;;;;60.13;45.33;;;15.60;99.90;;;;;;5051398;28;20051;-80
2022/05/19 03:07:44;;;;;;;60.75;42.85;;;15.70;99.90;;;;;;5050315;28;20090;-80
2022/05/19 03:10:10;;;;;;;57.90;42.85;;;15.60;99.90;;;;;;5034888;28;20041;-80
2022/05/19 03:12:36;;;;;;;56.20;43.22;;;15.70;99.90;;;;;;5035715;28;20400;-81
2022/05/19 03:15:03;;;;;;;58.78;42.08;;;15.80;99.90;;;;;;5051751;28;20473;-80
2022/05/19 03:17:29;;;;;;;62.97;42.92;;;15.80;99.90;;;;;;5035809;28;20048;-80
2022/05/19 03:19:56;;;;;;;57.72;39.95;;;15.80;99.90;;;;;;5021686;28;20048;-80
2022/05/19 03:22:22;;;;;;;;;;;15.90;99.90;;;;;;5055466;28;20045;-81
2022/05/19 03:24:48;;;;;;;56.47;38.97;;;15.90;99.90;;;;;;5038848;28;19969;-80
2022/05/19 03:27:13;;;;;;;54.88;40.45;;;16.00;99.90;;;;;;5054579;28;20041;-80
2022/05/19 03:29:39;;;;;;;60.55;41.80;;;16.10;99.90;;;;;;5038362;28;20047;-80
2022/05/19 03:32:05;;;;;;;56.33;41.25;;;16.10;99.90;;;;;;5021665;28;20044;-80
2022/05/19 03:34:31;;;;;;;56.33;39.33;;;16.20;99.90;;;;;;5055095;28;20036;-80
2022/05/19 03:36:57;;;;;;;56.47;40.97;;;16.20;99.90;;;;;;5038015;28;20040;-80
2022/05/19 03:39:23;;;;;;;57.35;40.97;;;16.20;99.90;;;;;;5038440;28;20066;-80
2022/05/19 03:41:48;;;;;;;59.22;41.45;;;16.20;99.90;;;;;;5055035;28;20075;-80
2022/05/19 03:44:14;;;;;;;61.17;40.63;;;16.20;99.90;;;;;;5054487;28;20496;-80
2022/05/19 03:46:40;;;;;;;60.90;42.10;;;16.30;99.90;;;;;;5054790;28;20032;-80
2022/05/19 03:49:05;;;;;;;61.78;41.55;;;16.20;99.90;;;;;;5054612;28;20098;-80
2022/05/19 03:51:33;;;;;;;59.90;42.20;;;16.20;99.90;;;;;;5072931;28;20060;-81
2022/05/19 03:53:59;;;;;;;62.33;41.97;;;16.30;99.90;;;;;;5054475;28;20040;-80
2022/05/19 03:56:25;;;;;;;61.38;41.38;;;16.20;99.90;;;;;;5054931;28;20488;-80
2022/05/19 03:58:52;;;;;;;57.42;41.03;;;16.20;99.90;;;;;;5054295;28;20071;-80
2022/05/19 04:01:20;;;;;;;59.50;39.78;;;16.30;99.90;;;;;;5054423;28;20108;-80
2022/05/19 04:03:46;;;;;;;54.70;40.17;;;16.30;99.90;;;;;;5038019;28;20089;-80
2022/05/19 04:06:12;;;;;;;64.05;41.47;;;16.40;99.90;;;;;;5037693;28;20463;-80
2022/05/19 04:08:38;;;;;;;62.60;41.53;;;16.40;99.90;;;;;;5054644;28;20083;-80
2022/05/19 04:11:04;;;;;;;;;;;16.40;99.90;;;;;;5054452;28;20044;-80
2022/05/19 04:13:31;;;;;;;61.88;41.67;;;16.40;99.90;;;;;;5054577;28;19924;-80
2022/05/19 04:15:56;;;;;;;;;;;16.40;99.90;;;;;;5052184;28;20467;-80
2022/05/19 04:18:22;;;;;;;66.95;43.80;;;16.40;99.90;;;;;;5037740;28;19920;-80
2022/05/19 04:20:48;;;;;;;64.15;44.63;;;16.50;99.90;;;;;;5054223;28;20035;-80
2022/05/19 04:23:14;;;;;;;63.78;45.55;;;16.50;99.90;;;;;;5052798;28;20071;-80
2022/05/19 04:25:41;;;;;;;64.65;44.58;;;16.40;99.90;;;;;;5054023;28;20530;-82
2022/05/19 04:28:07;;;;;;;66.78;44.90;;;16.50;99.90;;;;;;5053003;28;20125;-81
2022/05/19 04:30:33;;;;;;;63.97;45.40;;;16.50;99.90;;;;;;5037824;28;20064;-81
2022/05/19 04:32:59;;;;;;;65.80;46.83;;;16.70;99.90;;;;;;5037155;28;20047;-82
2022/05/19 04:35:25;;;;;;;67.10;46.15;;;16.60;99.90;;;;;;5037923;28;20040;-81
2022/05/19 04:37:51;;;;;;;61.60;46.08;;;16.70;99.90;;;;;;5053947;28;20032;-81
2022/05/19 04:40:18;;;;;;;68.88;46.63;;;16.70;99.90;;;;;;5053544;28;20082;-81
2022/05/19 04:42:44;;;;;;;66.70;47.33;;;16.80;99.90;;;;;;5037739;28;20040;-82
2022/05/19 04:45:12;;;;;;;64.50;48.13;;;16.90;99.90;;;;;;5053851;28;20051;-82
2022/05/19 04:47:38;;;;;;;63.72;44.10;;;16.90;99.90;;;;;;5054277;28;20392;-82
2022/05/19 04:50:04;;;;;;;64.65;47.13;;;17.00;99.90;;;;;;5020495;28;20044;-81
2022/05/19 04:52:29;;;;;;;68.95;45.55;;;17.10;99.90;;;;;;5021559;28;20024;-82
2022/05/19 04:54:55;;;;;;;68.60;44.13;;;17.20;99.90;;;;;;5037519;28;20043;-83
2022/05/19 04:57:21;;;;;;;64.85;45.25;;;17.30;99.90;;;;;;5053833;28;20040;-82
2022/05/19 04:59:47;;;;;;;62.10;44.20;;;17.40;99.90;;;;;;5054058;28;20033;-83
2022/05/19 05:02:12;;;;;;;69.10;43.80;;;17.50;99.90;;;;;;5036878;28;20047;-82
2022/05/19 05:04:38;;;;;;;65.07;43.28;;;17.50;99.90;;;;;;5053917;28;20036;-82
2022/05/19 05:07:05;;;;;;;64.68;44.00;;;17.60;99.90;;;;;;5020259;28;20040;-83
2022/05/19 05:09:31;;;;;;;57.80;42.60;;;17.60;99.90;;;;;;5037358;28;20457;-81
2022/05/19 05:11:57;;;;;;;54.75;42.28;;;17.60;99.90;;;;;;5053363;28;20120;-81
2022/05/19 05:14:22;;;;;;;56.42;40.35;;;17.70;99.90;;;;;;5053383;28;20115;-82
2022/05/19 05:16:50;;;;;;;50.85;36.53;;;17.90;99.90;;;;;;5034978;28;20503;-83
2022/05/19 05:19:19;;;;;;;48.38;35.83;;;17.90;99.90;;;;;;5036221;28;20045;-82
2022/05/19 05:21:45;;;;;;;46.58;34.35;;;18.00;99.90;;;;;;5053529;28;20043;-82
2022/05/19 05:24:11;;;;;;;51.63;36.83;;;18.10;99.90;;;;;;5036375;28;20053;-83
2022/05/19 05:26:37;;;;;;;54.08;37.10;;;18.20;99.90;;;;;;5053737;28;20040;-82
2022/05/19 05:29:03;;;;;;;50.53;36.17;;;18.20;99.90;;;;;;5036570;28;20040;-83
2022/05/19 05:31:28;;;;;;;51.72;39.03;;;18.30;99.90;;;;;;5003946;28;20043;-83
2022/05/19 05:33:54;;;;;;;54.17;37.45;;;18.30;99.90;;;;;;5020005;28;20040;-82
2022/05/19 05:36:20;;;;;;;52.92;38.15;;;18.40;99.90;;;;;;5019945;28;20115;-82
2022/05/19 05:38:46;;;;;;;51.33;37.33;;;18.50;99.90;;;;;;5035521;28;20037;-82
2022/05/19 05:41:13;;;;;;;50.63;36.38;;;18.60;99.90;;;;;;5052778;28;20036;-81
2022/05/19 05:43:40;;;;;;;51.33;37.08;;;18.60;99.90;;;;;;5053139;28;20032;-82
2022/05/19 05:46:09;;;;;;;47.97;36.50;;;18.60;99.90;;;;;;5036130;28;20080;-82
2022/05/19 05:48:36;;;;;;;47.67;35.38;;;18.80;99.90;;;;;;5053268;28;20060;-82
2022/05/19 05:51:10;;;;;;;49.70;34.45;;;18.90;99.90;;;;;;5052937;28;20040;-82
2022/05/19 05:53:37;;;;;;;46.35;34.55;;;19.10;99.90;;;;;;5036565;28;20605;-82
2022/05/19 05:56:04;;;;;;;40.50;30.42;;;19.20;99.90;;;;;;5052869;28;20115;-81
2022/05/19 05:58:30;;;;;;;37.90;29.00;;;19.30;99.90;;;;;;5052441;28;20089;-82
2022/05/19 06:00:56;;;;;;;35.13;27.58;;;19.50;99.90;;;;;;5035497;28;20048;-81
2022/05/19 06:03:22;;;;;;;33.63;25.75;;;19.60;99.90;;;;;;5035775;28;20037;-82
2022/05/19 06:05:48;;;;;;;34.17;26.33;;;19.70;99.90;;;;;;5036177;28;20028;-83
2022/05/19 06:08:15;;;;;;;35.78;26.80;;;19.70;99.90;;;;;;5052490;28;20052;-82
2022/05/19 06:10:41;;;;;;;;;;;19.90;99.90;;;;;;5053204;28;20037;-81
2022/05/19 06:13:06;;;;;;;35.38;25.70;;;19.80;99.90;;;;;;5052851;28;19943;-81
2022/05/19 06:15:32;;;;;;;33.47;25.55;;;19.90;99.90;;;;;;5036441;28;20044;-81
2022/05/19 06:17:58;;;;;;;32.97;25.27;;;19.90;99.90;;;;;;5052493;28;20040;-83
2022/05/19 06:20:24;;;;;;;36.08;24.75;;;19.90;99.90;;;;;;5034951;28;20067;-82
2022/05/19 06:22:50;;;;;;;30.67;23.58;;;20.00;99.90;;;;;;5035291;28;20522;-83
2022/05/19 06:25:20;;;;;;;33.75;23.90;;;20.10;99.90;;;;;;5052210;28;20036;-83
2022/05/19 06:27:49;;;;;;;28.65;22.33;;;20.10;99.90;;;;;;5053036;28;20376;-82
2022/05/19 06:30:15;;;;;;;29.90;23.17;;;20.20;99.90;;;;;;5052467;28;20045;-83
2022/05/19 06:32:42;;;;;;;26.83;21.58;;;20.20;99.90;;;;;;5035924;28;20086;-83
2022/05/19 06:35:10;;;;;;;31.83;22.55;;;20.20;99.90;;;;;;5052416;28;20045;-82
2022/05/19 06:37:36;;;;;;;27.80;20.83;;;20.30;99.90;;;;;;5067481;28;20036;-82
2022/05/19 06:40:01;;;;;;;25.50;20.27;;;20.20;99.90;;;;;;5033516;28;20382;-82
2022/05/19 06:42:27;;;;;;;27.02;20.70;;;20.20;99.90;;;;;;5052521;28;20036;-83
2022/05/19 06:44:53;;;;;;;25.88;20.15;;;20.20;99.90;;;;;;5052932;28;20040;-83
2022/05/19 06:47:18;;;;;;;26.52;19.98;;;20.10;99.90;;;;;;5035362;28;20056;-81
2022/05/19 06:49:47;;;;;;;26.52;20.52;;;20.00;99.90;;;;;;5035827;28;20040;-83
2022/05/19 06:52:19;;;;;;;25.10;20.80;;;20.00;99.90;;;;;;5037880;28;20044;-82
2022/05/19 06:54:51;;;;;;;27.27;20.20;;;19.90;99.90;;;;;;5054363;28;20036;-83
2022/05/19 06:57:19;;;;;;;29.17;21.52;;;19.80;99.90;;;;;;5056126;28;20496;-84
2022/05/19 06:59:45;;;;;;;33.40;23.38;;;19.70;99.90;;;;;;5054021;28;20041;-83
2022/05/19 07:02:11;;;;;;;;;;;19.60;99.90;;;;;;5023473;28;20036;-83
2022/05/19 07:04:38;;;;;;;31.95;22.55;;;19.50;99.90;;;;;;5056247;28;19916;-84
2022/05/19 07:07:05;;;;;;;30.50;22.77;;;19.50;99.90;;;;;;5039472;28;20074;-82
2022/05/19 07:09:31;;;;;;;28.35;22.25;;;19.30;99.90;;;;;;5086637;28;20404;-84
2022/05/19 07:11:57;;;;;;;28.45;21.58;;;19.20;99.90;;;;;;5055624;28;20040;-83
2022/05/19 07:14:23;;;;;;;26.00;19.95;;;19.10;99.90;;;;;;5038885;28;20036;-82
2022/05/19 07:16:49;;;;;;;26.98;20.92;;;19.00;99.90;;;;;;5022363;28;20052;-83
2022/05/19 07:22:00;;;;;;;25.05;19.55;;;19.10;99.90;;;;;;5055306;28;20075;-83
2022/05/19 07:24:26;;;;;;;25.92;20.08;;;19.00;99.90;;;;;;5055214;28;20106;-83
2022/05/19 07:26:54;;;;;;;27.08;19.58;;;19.10;99.90;;;;;;5005615;28;20040;-83
2022/05/19 07:29:21;;;;;;;25.77;19.77;;;19.20;99.90;;;;;;5055601;28;20079;-83
2022/05/19 07:31:48;;;;;;;24.63;19.35;;;19.20;99.90;;;;;;5039150;28;20037;-83
2022/05/19 07:34:16;;;;;;;25.90;20.08;;;19.20;99.90;;;;;;5038802;28;20538;-83
2022/05/19 07:36:41;;;;;;;24.90;20.42;;;19.20;99.90;;;;;;5055664;28;20040;-83
2022/05/19 07:39:08;;;;;;;24.27;18.45;;;19.20;99.90;;;;;;5055278;28;20047;-83
2022/05/19 07:41:34;;;;;;;26.98;20.15;;;19.20;99.90;;;;;;5038451;28;20040;-84
2022/05/19 07:44:00;;;;;;;25.05;20.48;;;19.20;99.90;;;;;;5036161;28;20037;-83
2022/05/19 07:46:27;;;;;;;24.52;18.65;;;19.20;99.90;;;;;;5038699;28;20115;-83
2022/05/19 07:48:54;;;;;;;24.75;21.20;;;19.20;99.90;;;;;;5038512;28;20412;-83
2022/05/19 07:51:25;;;;;;;25.13;19.98;;;19.20;99.90;;;;;;5055075;28;20508;-83
2022/05/19 07:53:51;;;;;;;26.38;20.52;;;19.10;99.90;;;;;;5038952;28;20086;-83
2022/05/19 07:56:17;;;;;;;20.77;17.88;;;19.10;99.90;;;;;;5022415;28;20036;-84
2022/05/19 07:58:43;;;;;;;;;;;19.00;99.90;;;;;;5055402;28;20041;-82
2022/05/19 08:01:09;;;;;;;19.35;16.40;;;19.00;99.90;;;;;;5055312;28;19942;-80
2022/05/19 08:03:35;;;;;;;22.50;18.20;;;19.00;99.90;;;;;;5037273;28;20044;-78
2022/05/19 08:06:01;;;;;;;24.15;17.85;;;19.00;99.90;;;;;;5054330;28;20067;-78
2022/05/19 08:08:27;;;;;;;27.00;19.35;;;19.00;99.90;;;;;;5037869;28;20037;-78
2022/05/19 08:10:57;;;;;;;25.40;18.25;;;19.10;99.90;;;;;;5035688;28;20079;-78
2022/05/19 08:16:07;;;;;;;24.83;20.90;;;19.20;99.90;;;;;;5054204;28;20041;-78
2022/05/19 08:18:33;;;;;;;;;;;19.20;99.90;;;;;;5054642;28;20041;-78
2022/05/19 08:21:01;;;;;;;24.70;17.92;;;19.20;99.90;;;;;;5054334;28;19916;-78
2022/05/19 08:23:33;;;;;;;25.13;19.38;;;19.20;99.90;;;;;;5053970;28;20043;-78
2022/05/19 08:25:58;;;;;;;27.27;20.20;;;19.30;99.90;;;;;;5052581;28;20051;-78
2022/05/19 08:28:30;;;;;;;25.48;18.70;;;19.30;99.90;;;;;;5054337;28;20040;-83
2022/05/19 08:31:07;;;;;;;21.90;16.40;;;19.30;99.90;;;;;;5037628;28;20045;-82
2022/05/19 08:33:34;;;;;;;19.67;15.82;;;19.20;99.90;;;;;;5054344;28;20123;-82
2022/05/19 08:36:00;;;;;;;20.98;17.25;;;19.20;99.90;;;;;;5037753;28;20064;-83
2022/05/19 08:38:26;;;;;;;27.55;18.80;;;19.30;99.90;;;;;;5020935;28;20087;-83
2022/05/19 08:41:22;;;;;;;22.33;17.27;;;19.20;99.90;;;;;;5038200;28;20036;-82
2022/05/19 08:44:01;;;;;;;21.92;14.60;;;19.30;99.90;;;;;;5053214;28;20044;-83
2022/05/19 08:46:35;;;;;;;18.73;14.15;;;19.30;99.90;;;;;;5053432;28;20036;-82
2022/05/19 08:49:27;;;;;;;21.00;15.63;;;19.30;99.90;;;;;;5036266;28;20036;-83
2022/05/19 08:52:07;;;;;;;20.50;15.05;;;19.40;99.90;;;;;;5007550;28;20485;-83
2022/05/19 08:54:35;;;;;;;22.65;15.77;;;19.50;99.90;;;;;;5053115;28;20574;-83
2022/05/19 08:57:21;;;;;;;20.85;16.48;;;19.70;99.90;;;;;;5053105;28;20101;-82
2022/05/19 09:00:02;;;;;;;24.70;17.13;;;19.80;99.90;;;;;;5033981;28;20045;-82
2022/05/19 09:02:50;;;;;;;26.17;18.15;;;19.90;99.90;;;;;;5050983;28;20051;-83
2022/05/19 09:05:28;;;;;;;;;;;20.20;99.90;;;;;;5052380;28;20047;-82
2022/05/19 09:08:13;;;;;;;19.63;12.55;;;20.40;99.90;;;;;;5036765;28;19916;-82
2022/05/19 09:10:42;;;;;;;16.63;11.50;;;20.80;99.90;;;;;;5034768;28;20086;-83
2022/05/19 09:13:25;;;;;;;18.73;11.23;;;21.00;99.90;;;;;;5053773;28;20139;-82
2022/05/19 09:15:52;;;;;;;15.60;11.13;;;21.20;99.90;;;;;;5053668;28;20108;-83
2022/05/19 09:18:23;;;;;;;13.75;10.13;;;21.40;99.90;;;;;;5037268;28;20518;-81
2022/05/19 09:20:53;;;;;;;14.23;9.75;;;21.50;99.90;;;;;;5053931;28;20484;-77
2022/05/19 09:23:20;;;;;;;13.15;9.70;;;21.60;99.90;;;;;;5036673;28;20048;-77
2022/05/19 09:25:49;;;;;;;12.95;9.40;;;21.80;99.90;;;;;;5036554;28;20165;-77
2022/05/19 09:28:17;;;;;;;11.98;8.65;;;22.00;99.90;;;;;;5053159;28;20148;-77
2022/05/19 09:30:56;;;;;;;11.70;7.93;;;22.30;99.90;;;;;;5036927;28;20500;-78
2022/05/19 09:33:37;;;;;;;11.70;7.30;;;22.30;99.90;;;;;;5053663;28;20117;-78
2022/05/19 09:36:12;;;;;;;13.95;7.85;;;22.00;99.90;;;;;;5053470;28;20047;-77
2022/05/19 09:38:46;;;;;;;11.90;7.28;;;22.10;99.90;;;;;;5052778;28;20041;-85
2022/05/19 09:41:33;;;;;;;10.98;7.20;;;22.40;99.90;;;;;;5054522;28;20047;-82
2022/05/19 09:44:02;;;;;;;10.52;6.97;;;22.50;99.90;;;;;;5051547;28;20037;-81
2022/05/19 09:46:42;;;;;;;11.02;6.30;;;22.60;99.90;;;;;;5052894;28;20162;-81
2022/05/19 09:49:28;;;;;;;13.98;6.80;;;22.80;99.90;;;;;;5052127;28;20048;-81
2022/05/19 09:51:59;;;;;;;7.00;5.85;;;23.00;99.90;;;;;;5051134;28;20068;-81
2022/05/19 09:54:29;;;;;;;9.05;6.65;;;23.10;99.90;;;;;;5053173;28;20123;-81
2022/05/19 09:57:03;;;;;;;8.70;6.32;;;23.20;99.90;;;;;;5051242;28;20079;-82
2022/05/19 10:00:01;;;;;;;9.98;6.72;;;23.20;99.90;;;;;;5053757;28;20107;-80
2022/05/19 10:02:32;;;;;;;9.90;6.20;;;23.40;99.90;;;;;;5020004;28;20102;-81
2022/05/19 10:05:00;;;;;;;10.43;6.50;;;23.70;99.90;;;;;;5053813;28;20071;-80
2022/05/19 10:07:34;;;;;;;7.50;5.47;;;23.50;99.90;;;;;;5053606;28;20064;-80
2022/05/19 10:10:00;;;;;;;9.25;6.32;;;23.40;99.90;;;;;;5036762;28;20059;-79
2022/05/19 10:12:28;;;;;;;;;;;23.70;99.90;;;;;;5037460;28;20045;-82
2022/05/19 10:15:04;;;;;;;8.50;6.00;;;24.00;99.90;;;;;;5053150;28;19920;-80
2022/05/19 10:17:41;;;;;;;10.60;6.30;;;24.20;99.90;;;;;;5053245;28;20037;-80
2022/05/19 10:20:25;;;;;;;7.30;6.20;;;24.50;99.90;;;;;;5036028;28;20101;-81
2022/05/19 10:23:02;;;;;;;8.48;5.85;;;24.70;99.90;;;;;;5052464;28;20072;-82
2022/05/19 10:26:06;;;;;;;7.07;5.88;;;24.80;99.90;;;;;;5052679;28;20045;-82
2022/05/19 10:31:52;;;;;;;6.97;4.40;;;25.90;99.90;;;;;;5055701;28;20438;-83
2022/05/19 10:34:43;;;;;;;9.07;5.20;;;25.90;99.90;;;;;;5038688;28;20178;-82
2022/05/19 10:37:27;;;;;;;8.80;5.43;;;26.40;99.90;;;;;;5053916;28;20074;-83
2022/05/19 10:40:15;;;;;;;8.00;5.60;;;26.50;99.90;;;;;;5054794;28;20044;-83
2022/05/19 10:42:43;;;;;;;7.10;6.00;;;27.00;99.90;;;;;;5053264;28;20070;-81
2022/05/19 10:45:25;;;;;;;10.45;6.93;;;27.00;99.90;;;;;;5055892;28;20124;-82
2022/05/19 10:48:15;;;;;;;11.65;7.35;;;27.00;99.90;;;;;;5039256;28;20086;-82
2022/05/19 10:51:05;;;;;;;10.15;8.02;;;26.50;99.90;;;;;;5055768;28;20488;-82
2022/05/19 10:54:04;;;;;;;10.43;8.02;;;26.50;99.90;;;;;;5038496;28;20071;-82
2022/05/19 10:56:58;;;;;;;11.88;8.65;;;26.10;99.90;;;;;;5039922;28;20036;-82
2022/05/19 10:59:41;;;;;;;9.65;7.57;;;26.00;99.90;;;;;;5056586;28;20377;-81
2022/05/19 11:02:33;;;;;;;8.23;6.78;;;26.20;99.90;;;;;;5073108;28;20037;-81
2022/05/19 11:05:08;;;;;;;6.65;5.65;;;26.60;99.90;;;;;;5055181;28;20041;-82
2022/05/19 11:07:44;;;;;;;7.13;6.03;;;26.90;99.90;;;;;;5040744;28;20094;-82
2022/05/19 11:10:29;;;;;;;8.95;6.15;;;27.40;99.90;;;;;;5056749;28;20075;-82
2022/05/19 11:13:01;;;;;;;9.00;6.10;;;27.60;99.90;;;;;;5056961;28;20049;-80
2022/05/19 11:15:43;;;;;;;10.75;6.93;;;27.90;99.90;;;;;;5042291;28;20538;-81
2022/05/19 11:18:23;;;;;;;8.88;6.18;;;28.20;99.90;;;;;;5042372;28;20186;-81
2022/05/19 11:21:19;;;;;;;10.45;6.45;;;28.20;99.90;;;;;;5084062;28;20043;-81
2022/05/19 11:23:51;;;;;;;7.03;5.97;;;27.90;99.90;;;;;;4999983;28;1108030;-81
2022/05/19 11:26:51;;;;;;;7.40;5.90;;;28.20;99.90;;;;;;5043418;28;20480;-81
2022/05/19 11:29:42;;;;;;;9.15;6.88;;;28.30;99.90;;;;;;5045239;28;20127;-82
2022/05/19 11:32:37;;;;;;;10.82;7.90;;;28.50;99.90;;;;;;5043908;28;20047;-82
2022/05/19 11:35:22;;;;;;;9.90;8.00;;;28.50;99.90;;;;;;5067366;28;20047;-81
2022/05/19 11:38:15;;;;;;;9.55;6.70;;;28.20;99.90;;;;;;5058504;28;20040;-81
2022/05/19 11:41:06;;;;;;;9.07;7.30;;;27.80;99.90;;;;;;5043160;28;20475;-81
2022/05/19 11:43:51;;;;;;;7.78;6.88;;;27.70;99.90;;;;;;5041072;28;20041;-81
2022/05/19 11:46:25;;;;;;;7.60;6.53;;;27.40;99.90;;;;;;5042333;28;20036;-81
2022/05/19 11:55:19;;;;;;;9.20;8.20;;;28.20;99.90;;;;;;5010997;28;20489;-80
2022/05/19 11:57:59;;;;;;;10.13;8.00;;;28.40;99.90;;;;;;4982101;28;20125;-82
2022/05/19 12:00:35;;;;;;;8.25;7.07;;;28.30;99.90;;;;;;5032291;28;20191;-83
2022/05/19 12:03:05;;;;;;;8.30;7.38;;;28.20;99.90;;;;;;5058155;28;20037;-84
2022/05/19 12:05:37;;;;;;;10.57;8.07;;;28.30;99.90;;;;;;5039431;28;20037;-83
2022/05/19 12:08:23;;;;;;;9.77;8.70;;;28.20;99.90;;;;;;5041724;28;20043;-82
2022/05/19 12:11:13;;;;;;;10.68;8.38;;;28.00;99.90;;;;;;5060126;28;20029;-83
2022/05/19 12:13:45;;;;;;;10.55;7.82;;;27.80;99.90;;;;;;5049312;28;20170;-83
2022/05/19 12:16:14;;;;;;;11.30;9.45;;;27.50;99.90;;;;;;5043717;28;20043;-81
2022/05/19 12:19:02;;;;;;;12.48;10.20;;;27.50;99.90;;;;;;5045663;28;20040;-81
2022/05/19 12:21:56;;;;;;;11.45;10.10;;;27.50;99.90;;;;;;5067118;28;20030;-82
2022/05/19 12:24:36;;;;;;;13.82;9.95;;;27.50;99.90;;;;;;5047701;28;20597;-81
2022/05/19 12:27:18;;;;;;;13.38;10.10;;;27.20;99.90;;;;;;5061587;28;20056;-81
2022/05/19 12:33:11;;;;;;;12.57;9.88;;;27.00;99.90;;;;;;5049901;28;20099;-81
2022/05/19 12:35:38;;;;;;;10.73;9.23;;;26.90;99.90;;;;;;5044950;28;20484;-83
2022/05/19 12:38:25;;;;;;;10.85;9.00;;;26.80;99.90;;;;;;5065085;28;20044;-83
2022/05/19 12:40:53;;;;;;;11.73;9.55;;;26.70;99.90;;;;;;5045927;28;20048;-81
2022/05/19 12:43:23;;;;;;;13.73;8.73;;;26.60;99.90;;;;;;5056756;28;20043;-81
2022/05/19 12:45:55;;;;;;;9.02;7.63;;;26.60;99.90;;;;;;5056837;28;20051;-81
2022/05/19 12:48:33;;;;;;;10.43;8.00;;;26.50;99.90;;;;;;5039798;28;20389;-82
2022/05/19 12:51:08;;;;;;;8.20;7.05;;;26.40;99.90;;;;;;5056142;28;20048;-81
2022/05/19 12:53:49;;;;;;;9.73;7.30;;;26.20;99.90;;;;;;5056553;28;20101;-81
2022/05/19 12:56:40;;;;;;;9.35;6.57;;;26.00;99.90;;;;;;5056641;28;20049;-81
2022/05/19 12:59:07;;;;;;;10.07;7.00;;;25.70;99.90;;;;;;5039637;28;20087;-81
2022/05/19 13:01:44;;;;;;;8.30;5.18;;;25.40;99.90;;;;;;5059214;28;20442;-76
2022/05/19 13:04:19;;;;;;;6.75;2.88;;;24.70;99.90;;;;;;5042884;28;21565;-80
2022/05/19 13:07:14;;;;;;;5.35;2.78;;;23.70;99.90;;;;;;5057136;28;20037;-77
2022/05/19 13:09:41;;;;;;;2.92;1.38;;;23.20;99.90;;;;;;5052199;28;20036;-78
2022/05/19 13:12:17;;;;;;;6.20;1.10;;;22.50;99.90;;;;;;5055450;28;20540;-78
2022/05/19 13:14:56;;;;;;;3.40;1.00;;;22.20;99.90;;;;;;5053089;28;20036;-79
2022/05/19 13:17:43;;;;;;;1.98;1.10;;;21.90;99.90;;;;;;5054061;28;20403;-83